createdAt,value
2018-03-06T00:01:07.184Z,71.55
2018-03-06T00:03:33.948Z,93.80
2018-03-06T00:06:00.702Z,79.57
2018-03-06T00:08:27.541Z,91.07
2018-03-06T00:10:54.286Z,90.55
2018-03-06T00:13:21.015Z,85.82
2018-03-06T00:15:47.773Z,81.87
2018-03-06T00:18:14.532Z,78.28
2018-03-06T00:20:42.220Z,78.05
2018-03-06T00:23:08.964Z,84.72
2018-03-06T00:25:35.764Z,84.80
2018-03-06T00:28:02.517Z,81.05
2018-03-06T00:30:29.276Z,81.95
2018-03-06T00:32:56.042Z,86.68
2018-03-06T00:35:22.914Z,91.80
2018-03-06T00:37:49.690Z,79.10
2018-03-06T00:40:16.435Z,88.32
2018-03-06T00:42:43.217Z,92.47
2018-03-06T00:45:09.992Z,87.53
2018-03-06T00:47:36.823Z,81.15
2018-03-06T00:50:03.581Z,85.28
2018-03-06T00:52:30.354Z,76.85
2018-03-06T00:54:57.090Z,85.15
2018-03-06T00:57:23.855Z,74.35
2018-03-06T00:59:50.612Z,83.93
2018-03-06T01:02:17.376Z,83.97
2018-03-06T01:04:44.148Z,77.78
2018-03-06T01:07:10.949Z,84.62
2018-03-06T01:09:37.725Z,83.45
2018-03-06T01:12:04.508Z,80.65
2018-03-06T01:14:31.273Z,82.28
2018-03-06T01:16:58.014Z,78.82
2018-03-06T01:19:24.782Z,84.72
2018-03-06T01:21:51.531Z,89.20
2018-03-06T01:24:18.277Z,87.93
2018-03-06T01:26:45.069Z,95.25
2018-03-06T01:29:11.809Z,88.95
2018-03-06T01:31:38.570Z,73.32
2018-03-06T01:34:05.351Z,88.15
2018-03-06T01:36:32.126Z,83.82
2018-03-06T01:38:58.871Z,83.72
2018-03-06T01:41:25.633Z,79.85
2018-03-06T01:43:52.418Z,80.95
2018-03-06T01:46:19.196Z,76.57
2018-03-06T01:48:45.955Z,92.88
2018-03-06T01:51:12.743Z,83.15
2018-03-06T01:53:39.520Z,97.43
2018-03-06T01:56:06.269Z,82.37
2018-03-06T01:58:33.064Z,82.72
2018-03-06T02:00:59.799Z,76.97
2018-03-06T02:03:26.588Z,86.45
2018-03-06T02:05:53.394Z,72.90
2018-03-06T02:08:20.177Z,78.90
2018-03-06T02:10:46.947Z,82.45
2018-03-06T02:13:13.681Z,87.37
2018-03-06T02:15:40.446Z,95.45
2018-03-06T02:18:07.201Z,71.62
2018-03-06T02:20:33.933Z,80.70
2018-03-06T02:23:00.691Z,79.12
2018-03-06T02:25:27.441Z,86.80
2018-03-06T02:27:54.228Z,81.68
2018-03-06T02:30:20.984Z,83.45
2018-03-06T02:32:47.719Z,89.57
2018-03-06T02:35:14.479Z,89.80
2018-03-06T02:37:41.231Z,81.25
2018-03-06T02:40:08.028Z,82.72
2018-03-06T02:42:34.784Z,84.28
2018-03-06T02:45:01.510Z,90.70
2018-03-06T02:47:28.291Z,88.82
2018-03-06T02:49:55.038Z,107.32
2018-03-06T02:52:21.809Z,92.25
2018-03-06T02:54:48.627Z,86.82
2018-03-06T02:57:15.394Z,81.53
2018-03-06T02:59:42.188Z,77.68
2018-03-06T03:02:08.951Z,87.75
2018-03-06T03:04:35.732Z,83.93
2018-03-06T03:07:02.471Z,78.62
2018-03-06T03:09:29.294Z,74.82
2018-03-06T03:11:56.046Z,81.90
2018-03-06T03:14:22.807Z,75.10
2018-03-06T03:16:49.567Z,74.60
2018-03-06T03:19:16.307Z,81.60
2018-03-06T03:21:43.084Z,73.22
2018-03-06T03:24:09.872Z,75.20
2018-03-06T03:26:36.685Z,74.75
2018-03-06T03:29:03.487Z,70.53
2018-03-06T03:31:30.302Z,85.40
2018-03-06T03:33:57.055Z,78.15
2018-03-06T03:36:23.834Z,72.45
2018-03-06T03:38:50.580Z,76.28
2018-03-06T03:41:17.379Z,73.78
2018-03-06T03:43:44.129Z,73.45
2018-03-06T03:46:10.872Z,70.03
2018-03-06T03:48:37.617Z,73.22
2018-03-06T03:51:04.399Z,81.50
2018-03-06T03:53:31.184Z,74.62
2018-03-06T03:55:57.939Z,71.05
2018-03-06T03:58:24.669Z,77.40
2018-03-06T04:00:51.487Z,65.28
2018-03-06T04:03:18.261Z,69.03
2018-03-06T04:05:45.058Z,68.90
2018-03-06T04:08:11.811Z,72.68
2018-03-06T04:10:38.561Z,75.20
2018-03-06T04:13:05.322Z,74.15
2018-03-06T04:15:32.084Z,73.75
2018-03-06T04:17:58.875Z,78.62
2018-03-06T04:20:25.631Z,74.95
2018-03-06T04:22:52.359Z,76.07
2018-03-06T04:25:19.127Z,86.10
2018-03-06T04:27:45.889Z,78.87
2018-03-06T04:30:12.675Z,80.22
2018-03-06T04:32:39.395Z,65.97
2018-03-06T04:35:06.175Z,71.40
2018-03-06T04:37:32.931Z,68.43
2018-03-06T04:39:59.685Z,65.30
2018-03-06T04:42:26.452Z,69.90
2018-03-06T04:44:53.188Z,65.75
2018-03-06T04:47:19.954Z,67.45
2018-03-06T04:49:46.721Z,57.95
2018-03-06T04:52:13.526Z,66.80
2018-03-06T04:54:40.307Z,75.85
2018-03-06T04:57:07.201Z,77.12
2018-03-06T04:59:33.996Z,66.75
2018-03-06T05:02:00.733Z,77.82
2018-03-06T05:04:27.571Z,81.63
2018-03-06T05:06:54.376Z,75.78
2018-03-06T05:09:21.117Z,77.28
2018-03-06T05:11:47.886Z,74.32
2018-03-06T05:14:14.643Z,75.97
2018-03-06T05:16:41.403Z,71.55
2018-03-06T05:19:08.155Z,78.62
2018-03-06T05:21:34.922Z,72.50
2018-03-06T05:24:01.725Z,76.35
2018-03-06T05:26:28.471Z,71.85
2018-03-06T05:28:55.220Z,80.30
2018-03-06T05:31:21.989Z,74.75
2018-03-06T05:33:48.726Z,73.80
2018-03-06T05:36:15.494Z,79.30
2018-03-06T05:38:42.275Z,71.68
2018-03-06T05:41:09.050Z,74.78
2018-03-06T05:43:35.809Z,73.75
2018-03-06T05:46:02.556Z,74.97
2018-03-06T05:48:29.343Z,74.28
2018-03-06T05:50:56.076Z,69.15
2018-03-06T05:53:22.861Z,71.85
2018-03-06T05:55:49.642Z,75.15
2018-03-06T05:58:16.387Z,73.05
2018-03-06T06:00:43.150Z,68.68
2018-03-06T06:03:10.966Z,80.97
2018-03-06T06:05:37.764Z,69.10
2018-03-06T06:08:04.539Z,77.45
2018-03-06T06:10:31.314Z,76.47
2018-03-06T06:12:58.050Z,79.68
2018-03-06T06:15:24.817Z,73.85
2018-03-06T06:17:51.558Z,68.87
2018-03-06T06:20:18.298Z,66.57
2018-03-06T06:22:45.046Z,60.83
2018-03-06T06:25:11.791Z,71.62
2018-03-06T06:27:38.535Z,66.35
2018-03-06T06:30:05.277Z,73.43
2018-03-06T06:32:32.008Z,71.30
2018-03-06T06:34:58.761Z,68.65
2018-03-06T06:37:25.491Z,77.18
2018-03-06T06:39:52.271Z,65.70
2018-03-06T06:42:19.030Z,67.50
2018-03-06T06:44:45.748Z,65.15
2018-03-06T06:47:12.540Z,68.35
2018-03-06T06:49:39.279Z,55.30
2018-03-06T06:52:06.050Z,60.15
2018-03-06T06:54:32.785Z,58.80
2018-03-06T06:56:59.511Z,63.33
2018-03-06T06:59:26.238Z,67.87
2018-03-06T07:01:52.970Z,73.00
2018-03-06T07:04:19.720Z,67.90
2018-03-06T07:06:46.456Z,73.00
2018-03-06T07:09:13.255Z,63.97
2018-03-06T07:11:39.994Z,61.00
2018-03-06T07:14:06.736Z,63.03
2018-03-06T07:16:33.481Z,50.92
2018-03-06T07:19:00.210Z,53.17
2018-03-06T07:21:26.951Z,51.67
2018-03-06T07:23:53.699Z,54.55
2018-03-06T07:26:20.418Z,59.00
2018-03-06T07:28:47.144Z,56.88
2018-03-06T07:31:13.875Z,53.65
2018-03-06T07:33:40.615Z,51.90
2018-03-06T07:36:07.386Z,51.03
2018-03-06T07:38:34.157Z,54.90
2018-03-06T07:41:00.898Z,61.75
2018-03-06T07:43:27.606Z,59.10
2018-03-06T07:45:54.343Z,58.25
2018-03-06T07:48:21.038Z,61.33
2018-03-06T07:50:47.764Z,65.20
2018-03-06T07:53:14.506Z,62.95
2018-03-06T07:55:41.229Z,55.85
2018-03-06T07:58:07.994Z,63.83
2018-03-06T08:00:34.692Z,67.37
2018-03-06T08:03:01.436Z,69.77
2018-03-06T08:05:28.261Z,65.20
2018-03-06T08:07:54.982Z,51.87
2018-03-06T08:10:21.708Z,46.57
2018-03-06T08:12:48.475Z,60.70
2018-03-06T08:15:15.208Z,53.87
2018-03-06T08:17:41.934Z,58.03
2018-03-06T08:20:08.647Z,51.50
2018-03-06T08:22:35.560Z,48.67
2018-03-06T08:25:02.263Z,56.27
2018-03-06T08:27:28.991Z,51.10
2018-03-06T08:29:55.734Z,51.77
2018-03-06T08:32:22.479Z,51.93
2018-03-06T08:34:49.201Z,58.30
2018-03-06T08:37:15.915Z,45.33
2018-03-06T08:39:42.631Z,57.77
2018-03-06T08:42:09.338Z,49.63
2018-03-06T08:44:36.066Z,53.40
2018-03-06T08:47:02.825Z,47.67
2018-03-06T08:49:29.528Z,53.33
2018-03-06T08:51:56.256Z,48.43
2018-03-06T08:54:22.973Z,57.77
2018-03-06T08:56:49.694Z,48.07
2018-03-06T08:59:18.265Z,49.80
2018-03-06T09:01:46.736Z,42.13
2018-03-06T09:04:15.555Z,50.77
2018-03-06T09:06:42.374Z,44.60
2018-03-06T09:09:09.264Z,44.23
2018-03-06T09:11:35.980Z,49.00
2018-03-06T09:14:02.713Z,47.13
2018-03-06T09:16:29.441Z,43.67
2018-03-06T09:18:56.145Z,46.17
2018-03-06T09:21:22.876Z,50.33
2018-03-06T09:23:49.605Z,41.20
2018-03-06T09:26:16.314Z,41.27
2018-03-06T09:28:43.646Z,36.80
2018-03-06T09:31:10.356Z,42.33
2018-03-06T09:33:37.101Z,39.37
2018-03-06T09:36:03.846Z,43.30
2018-03-06T09:38:30.609Z,39.93
2018-03-06T09:40:57.304Z,36.33
2018-03-06T09:43:24.009Z,41.00
2018-03-06T09:45:50.745Z,40.27
2018-03-06T09:48:17.504Z,42.30
2018-03-06T09:50:44.209Z,47.17
2018-03-06T09:53:10.974Z,50.27
2018-03-06T09:55:37.688Z,41.90
2018-03-06T09:58:04.474Z,45.70
2018-03-06T10:00:31.194Z,41.53
2018-03-06T10:02:58.010Z,43.60
2018-03-06T10:05:24.701Z,44.67
2018-03-06T10:07:51.413Z,48.33
2018-03-06T10:10:18.140Z,41.60
2018-03-06T10:12:44.846Z,43.33
2018-03-06T10:15:11.636Z,42.47
2018-03-06T10:17:38.367Z,37.60
2018-03-06T10:20:05.073Z,38.50
2018-03-06T10:22:31.866Z,46.20
2018-03-06T10:24:58.550Z,42.53
2018-03-06T10:27:25.271Z,37.73
2018-03-06T10:29:52.005Z,38.93
2018-03-06T10:32:18.718Z,39.70
2018-03-06T10:34:45.459Z,35.50
2018-03-06T10:37:12.169Z,36.50
2018-03-06T10:39:38.905Z,41.30
2018-03-06T10:42:05.642Z,34.10
2018-03-06T10:44:32.359Z,37.20
2018-03-06T10:47:00.869Z,35.43
2018-03-06T10:49:28.477Z,43.53
2018-03-06T10:51:59.793Z,37.03
2018-03-06T10:54:27.198Z,34.93
2018-03-06T10:56:54.447Z,33.47
2018-03-06T10:59:21.157Z,37.00
2018-03-06T11:01:47.915Z,31.73
2018-03-06T11:04:14.649Z,30.83
2018-03-06T11:06:41.361Z,33.27
2018-03-06T11:09:08.111Z,32.70
2018-03-06T11:11:34.855Z,30.87
2018-03-06T11:14:01.567Z,30.63
2018-03-06T11:16:28.296Z,34.00
2018-03-06T11:18:55.031Z,35.63
2018-03-06T11:21:21.756Z,30.60
2018-03-06T11:23:48.477Z,30.27
2018-03-06T11:26:15.190Z,32.10
2018-03-06T11:28:41.910Z,34.80
2018-03-06T11:31:08.621Z,35.30
2018-03-06T11:33:35.317Z,36.20
2018-03-06T11:36:02.052Z,37.57
2018-03-06T11:38:28.797Z,35.83
2018-03-06T11:40:56.902Z,36.67
2018-03-06T11:43:23.615Z,33.30
2018-03-06T11:45:50.338Z,33.47
2018-03-06T11:48:17.074Z,36.10
2018-03-06T11:50:43.830Z,32.13
2018-03-06T11:53:10.561Z,39.17
2018-03-06T11:55:37.275Z,30.73
2018-03-06T11:58:08.733Z,36.30
2018-03-06T12:00:35.827Z,32.60
2018-03-06T12:03:02.534Z,33.43
2018-03-06T12:05:29.268Z,33.10
2018-03-06T12:07:55.986Z,41.30
2018-03-06T12:10:22.769Z,40.30
2018-03-06T12:12:49.608Z,37.43
2018-03-06T12:15:16.352Z,36.77
2018-03-06T12:17:43.093Z,35.13
2018-03-06T12:20:09.912Z,36.43
2018-03-06T12:22:36.650Z,35.27
2018-03-06T12:25:03.393Z,42.47
2018-03-06T12:27:30.135Z,38.10
2018-03-06T12:29:56.897Z,39.97
2018-03-06T12:32:23.669Z,35.23
2018-03-06T12:34:50.409Z,35.23
2018-03-06T12:37:17.120Z,38.57
2018-03-06T12:39:43.866Z,38.50
2018-03-06T12:42:14.103Z,36.10
2018-03-06T12:44:40.846Z,35.87
2018-03-06T12:47:07.551Z,36.80
2018-03-06T12:49:34.252Z,37.53
2018-03-06T12:52:00.998Z,40.80
2018-03-06T12:54:27.875Z,39.27
2018-03-06T12:56:54.654Z,37.23
2018-03-06T12:59:21.365Z,39.17
2018-03-06T13:01:48.087Z,38.27
2018-03-06T13:04:14.847Z,40.10
2018-03-06T13:06:41.579Z,38.47
2018-03-06T13:09:08.361Z,36.90
2018-03-06T13:11:35.087Z,38.97
2018-03-06T13:14:01.798Z,36.83
2018-03-06T13:16:28.546Z,35.37
2018-03-06T13:18:55.291Z,35.23
2018-03-06T13:21:22.024Z,32.57
2018-03-06T13:23:48.788Z,36.47
2018-03-06T13:26:15.506Z,37.20
2018-03-06T13:28:42.282Z,37.63
2018-03-06T13:31:09.037Z,34.27
2018-03-06T13:33:35.876Z,38.60
2018-03-06T13:36:02.610Z,36.40
2018-03-06T13:38:29.399Z,35.23
2018-03-06T13:40:56.153Z,32.57
2018-03-06T13:43:22.866Z,37.87
2018-03-06T13:45:49.601Z,45.00
2018-03-06T13:48:16.361Z,41.70
2018-03-06T13:50:43.097Z,35.23
2018-03-06T13:53:09.846Z,40.60
2018-03-06T13:55:36.661Z,39.63
2018-03-06T13:58:03.386Z,46.03
2018-03-06T14:00:30.101Z,39.23
2018-03-06T14:02:56.831Z,37.70
2018-03-06T14:05:23.552Z,36.40
2018-03-06T14:07:50.295Z,42.73
2018-03-06T14:10:17.008Z,39.57
2018-03-06T14:12:43.745Z,37.07
2018-03-06T14:15:10.466Z,41.73
2018-03-06T14:17:37.205Z,38.43
2018-03-06T14:20:03.939Z,38.10
2018-03-06T14:22:30.652Z,40.77
2018-03-06T14:24:57.361Z,37.13
2018-03-06T14:27:24.090Z,40.30
2018-03-06T14:29:50.833Z,37.00
2018-03-06T14:32:17.554Z,42.93
2018-03-06T14:34:44.383Z,44.20
2018-03-06T14:37:11.113Z,33.97
2018-03-06T14:39:37.839Z,32.83
2018-03-06T14:42:04.564Z,39.30
2018-03-06T14:44:31.301Z,40.00
2018-03-06T14:46:58.081Z,37.77
2018-03-06T14:49:24.789Z,40.87
2018-03-06T14:51:51.527Z,38.77
2018-03-06T14:54:18.267Z,36.43
2018-03-06T14:56:45.147Z,36.80
2018-03-06T14:59:11.879Z,38.53
2018-03-06T15:01:38.634Z,40.43
2018-03-06T15:04:05.452Z,39.10
2018-03-06T15:06:32.222Z,41.83
2018-03-06T15:08:58.955Z,39.30
2018-03-06T15:11:25.695Z,39.70
2018-03-06T15:13:52.463Z,36.43
2018-03-06T15:16:19.183Z,33.40
2018-03-06T15:18:45.906Z,39.13
2018-03-06T15:21:12.626Z,37.63
2018-03-06T15:23:39.559Z,35.50
2018-03-06T15:26:06.349Z,38.30
2018-03-06T15:28:33.069Z,34.60
2018-03-06T15:30:59.784Z,35.30
2018-03-06T15:33:26.510Z,36.97
2018-03-06T15:35:53.242Z,37.10
2018-03-06T15:38:19.999Z,33.33
2018-03-06T15:40:46.711Z,38.83
2018-03-06T15:43:13.477Z,44.33
2018-03-06T15:45:40.259Z,39.90
2018-03-06T15:48:06.997Z,41.70
2018-03-06T15:50:33.758Z,40.20
2018-03-06T15:53:00.467Z,39.37
2018-03-06T15:55:27.265Z,40.87
2018-03-06T15:57:54.009Z,40.60
2018-03-06T16:00:20.759Z,46.70
2018-03-06T16:02:47.488Z,40.87
2018-03-06T16:05:14.227Z,44.27
2018-03-06T16:07:40.937Z,42.27
2018-03-06T16:10:07.666Z,43.33
2018-03-06T16:12:34.378Z,49.37
2018-03-06T16:15:01.113Z,44.90
2018-03-06T16:17:27.839Z,45.87
2018-03-06T16:19:54.547Z,42.77
2018-03-06T16:22:21.298Z,42.77
2018-03-06T16:24:48.025Z,44.33
2018-03-06T16:27:14.728Z,46.10
2018-03-06T16:29:41.454Z,52.20
2018-03-06T16:32:08.189Z,56.27
2018-03-06T16:34:34.940Z,45.87
2018-03-06T16:37:01.703Z,50.00
2018-03-06T16:39:28.487Z,44.13
2018-03-06T16:41:55.260Z,48.67
2018-03-06T16:44:21.992Z,40.30
2018-03-06T16:46:48.760Z,46.97
2018-03-06T16:49:15.498Z,45.60
2018-03-06T16:51:42.259Z,42.67
2018-03-06T16:54:08.987Z,48.50
2018-03-06T16:56:35.896Z,48.80
2018-03-06T16:59:02.664Z,53.40
2018-03-06T17:01:29.387Z,50.30
2018-03-06T17:03:56.159Z,54.90
2018-03-06T17:06:23.042Z,60.63
2018-03-06T17:08:49.776Z,51.73
2018-03-06T17:11:16.519Z,51.40
2018-03-06T17:13:43.247Z,51.50
2018-03-06T17:16:10.007Z,50.20
2018-03-06T17:18:36.738Z,57.50
2018-03-06T17:21:03.665Z,53.97
2018-03-06T17:23:30.457Z,64.80
2018-03-06T17:25:57.226Z,55.03
2018-03-06T17:28:24.006Z,57.97
2018-03-06T17:30:50.737Z,59.60
2018-03-06T17:33:17.513Z,52.67
2018-03-06T17:35:44.315Z,53.13
2018-03-06T17:38:11.036Z,56.33
2018-03-06T17:40:37.877Z,57.28
2018-03-06T17:43:04.634Z,56.83
2018-03-06T17:45:31.357Z,53.40
2018-03-06T17:47:58.176Z,55.00
2018-03-06T17:50:24.919Z,52.50
2018-03-06T17:52:51.655Z,50.87
2018-03-06T17:55:18.407Z,51.50
2018-03-06T17:57:45.134Z,46.27
2018-03-06T18:00:11.879Z,52.50
2018-03-06T18:02:38.626Z,57.67
2018-03-06T18:05:05.382Z,55.20
2018-03-06T18:07:32.115Z,56.50
2018-03-06T18:09:58.846Z,53.23
2018-03-06T18:12:25.587Z,62.90
2018-03-06T18:14:52.318Z,52.83
2018-03-06T18:17:19.073Z,59.20
2018-03-06T18:19:45.800Z,59.53
2018-03-06T18:22:12.596Z,58.30
2018-03-06T18:24:39.359Z,56.60
2018-03-06T18:27:06.120Z,61.30
2018-03-06T18:29:32.870Z,56.47
2018-03-06T18:31:59.614Z,49.00
2018-03-06T18:34:26.408Z,53.03
2018-03-06T18:36:53.186Z,56.33
2018-03-06T18:39:19.947Z,50.93
2018-03-06T18:41:46.687Z,50.03
2018-03-06T18:44:13.427Z,49.93
2018-03-06T18:46:40.196Z,51.60
2018-03-06T18:49:07.021Z,54.83
2018-03-06T18:51:33.771Z,52.13
2018-03-06T18:54:00.518Z,51.33
2018-03-06T18:56:27.259Z,50.03
2018-03-06T18:58:54.003Z,58.23
2018-03-06T19:01:35.635Z,53.87
2018-03-06T19:04:08.376Z,50.90
2018-03-06T19:06:36.428Z,57.90
2018-03-06T19:09:03.498Z,56.97
2018-03-06T19:11:30.386Z,53.20
2018-03-06T19:13:57.148Z,53.00
2018-03-06T19:16:23.864Z,55.07
2018-03-06T19:18:50.649Z,57.00
2018-03-06T19:21:17.399Z,55.43
2018-03-06T19:23:44.135Z,58.50
2018-03-06T19:26:10.910Z,55.20
2018-03-06T19:28:37.656Z,57.23
2018-03-06T19:31:04.421Z,60.43
2018-03-06T19:33:31.270Z,63.03
2018-03-06T19:35:58.012Z,69.67
2018-03-06T19:38:24.966Z,49.63
2018-03-06T19:40:51.979Z,58.90
2018-03-06T19:43:18.996Z,52.57
2018-03-06T19:45:45.773Z,72.07
2018-03-06T19:48:12.541Z,60.37
2018-03-06T19:50:39.373Z,62.20
2018-03-06T19:53:06.106Z,58.20
2018-03-06T19:55:32.854Z,57.30
2018-03-06T19:57:59.838Z,57.87
2018-03-06T20:00:26.672Z,52.20
2018-03-06T20:02:53.794Z,53.27
2018-03-06T20:05:21.186Z,54.07
2018-03-06T20:07:47.918Z,46.00
2018-03-06T20:10:14.641Z,52.30
2018-03-06T20:12:42.022Z,51.17
2018-03-06T20:15:14.396Z,51.53
2018-03-06T20:17:41.217Z,47.63
2018-03-06T20:20:08.004Z,53.33
2018-03-06T20:22:34.739Z,52.40
2018-03-06T20:25:07.514Z,46.30
2018-03-06T20:27:34.329Z,56.57
2018-03-06T20:30:01.356Z,47.80
2018-03-06T20:32:45.156Z,49.87
2018-03-06T20:35:11.958Z,51.37
2018-03-06T20:37:38.736Z,53.07
2018-03-06T20:40:39.269Z,51.40
2018-03-06T20:43:06.160Z,54.70
2018-03-06T20:45:38.654Z,58.73
2018-03-06T20:48:05.409Z,60.60
2018-03-06T20:50:32.167Z,65.70
2018-03-06T20:53:04.664Z,68.50
2018-03-06T20:55:31.469Z,61.87
2018-03-06T20:57:58.237Z,61.07
2018-03-06T21:00:25.020Z,56.47
2018-03-06T21:05:39.784Z,64.30
2018-03-06T21:08:06.539Z,55.73
2018-03-06T21:10:33.316Z,59.53
2018-03-06T21:13:00.071Z,53.13
2018-03-06T21:15:26.815Z,58.40
2018-03-06T21:17:54.476Z,59.20
2018-03-06T21:20:21.472Z,54.87
2018-03-06T21:22:48.224Z,57.60
2018-03-06T21:25:15.269Z,56.13
2018-03-06T21:27:42.015Z,60.03
2018-03-06T21:30:08.792Z,58.90
2018-03-06T21:32:35.556Z,54.73
2018-03-06T21:35:02.407Z,58.17
2018-03-06T21:37:29.160Z,53.03
2018-03-06T21:39:55.899Z,58.53
2018-03-06T21:42:22.761Z,57.63
2018-03-06T21:44:49.500Z,52.37
2018-03-06T21:47:16.271Z,54.50
2018-03-06T21:49:43.024Z,60.77
2018-03-06T21:52:09.745Z,63.47
2018-03-06T21:54:36.518Z,55.90
2018-03-06T21:57:03.285Z,64.60
2018-03-06T21:59:30.023Z,60.03
2018-03-06T22:01:56.770Z,61.07
2018-03-06T22:04:23.543Z,57.47
2018-03-06T22:06:50.266Z,55.63
2018-03-06T22:09:17.036Z,53.30
2018-03-06T22:11:43.775Z,55.47
2018-03-06T22:14:10.524Z,53.83
2018-03-06T22:16:37.271Z,54.70
2018-03-06T22:19:04.006Z,55.50
2018-03-06T22:21:30.751Z,53.23
2018-03-06T22:23:57.492Z,60.13
2018-03-06T22:26:24.217Z,55.90
2018-03-06T22:28:51.011Z,51.80
2018-03-06T22:31:17.778Z,47.07
2018-03-06T22:33:44.494Z,57.53
2018-03-06T22:36:11.268Z,47.00
2018-03-06T22:38:38.033Z,50.80
2018-03-06T22:41:04.788Z,49.00
2018-03-06T22:43:31.552Z,47.57
2018-03-06T22:45:58.295Z,45.83
2018-03-06T22:48:25.043Z,43.47
2018-03-06T22:50:51.769Z,46.10
2018-03-06T22:53:18.561Z,42.80
2018-03-06T22:55:45.306Z,45.43
2018-03-06T22:58:12.069Z,45.17
2018-03-06T23:00:38.834Z,47.87
2018-03-06T23:03:05.574Z,43.43
2018-03-06T23:05:32.319Z,50.23
2018-03-06T23:07:59.100Z,46.23
2018-03-06T23:10:25.843Z,50.23
2018-03-06T23:12:52.558Z,48.13
2018-03-06T23:15:19.331Z,48.17
2018-03-06T23:17:46.053Z,47.57
2018-03-06T23:20:12.784Z,49.07
2018-03-06T23:22:39.546Z,47.80
2018-03-06T23:25:06.309Z,44.03
2018-03-06T23:27:33.095Z,49.00
2018-03-06T23:29:59.902Z,46.13
2018-03-06T23:32:26.610Z,51.73
2018-03-06T23:34:53.343Z,48.40
2018-03-06T23:37:20.071Z,52.87
2018-03-06T23:39:46.816Z,59.67
2018-03-06T23:42:14.461Z,60.00
2018-03-06T23:44:41.219Z,53.20
2018-03-06T23:47:08.016Z,60.97
2018-03-06T23:49:34.743Z,58.87
2018-03-06T23:52:01.455Z,52.97
2018-03-06T23:54:28.227Z,53.73
2018-03-06T23:56:54.964Z,62.50
2018-03-06T23:59:21.702Z,54.37
